Perla, Arkansas
Current Conditions -  °F | °C
As of 5:53 PM on Friday 28 Nov 2014 (Local Time) from KHOT Reporting Station
Clear Clear  
Wind Chill: 54°   Ceiling: Unl
Heat Index: 54°   Visibility: 10mi
Dew Point: 38°   Wind: 5mph
Humidity: 55%   Direction: 190°S
Pressure: 30.09"   Gusts: NA
Location:  34.3189°N, 92.8629°W
Report Text: KHOT 282353Z AUTO 19004KT 10SM CLR 12/03 A3009 RMK AO2 SLP190 T01220033 10156 20106 55010
Loading
Personal Weather Stations






























Interactive Weather Map New forecast layout! Learn more

10-Day Weather Forecast

Advertisements
Track Severe Weather on mobile